Time;durP1;ratioP1;P1;durP2;ratioP2;P2;SDS_P1;SDS_P2;PMS_P1;PMS_P2;Temp;Humidity;BMP_temperature;BMP_pressure;BME280_temperature;BME280_humidity;BME280_pressure;Samples;Min_cycle;Max_cycle;Signal;HPM_P1;HPM_P2
2024/01/21 00:02:51;;;;;;;45.85;10.50;;;;;;;-1.83;72.08;101746.88;10272451;28;20053;-57
2024/01/21 00:07:52;;;;;;;45.67;11.98;;;;;;;-1.90;71.64;101740.13;10272775;28;20145;-58
2024/01/21 00:12:53;;;;;;;45.92;10.43;;;;;;;-2.06;72.14;101748.63;10274003;28;20065;-57
2024/01/21 00:17:55;;;;;;;40.58;13.05;;;;;;;-2.08;71.46;101739.06;10276563;28;20046;-57
2024/01/21 00:22:57;;;;;;;44.10;11.88;;;;;;;-2.06;71.81;101727.53;10274510;28;20077;-57
2024/01/21 00:27:58;;;;;;;49.75;11.13;;;;;;;-2.21;72.13;101733.44;10277101;28;20082;-59
2024/01/21 00:33:00;;;;;;;37.47;12.10;;;;;;;-2.33;72.08;101733.88;10273931;28;20501;-57
2024/01/21 00:38:02;;;;;;;46.38;12.30;;;;;;;-2.48;71.93;101720.41;10274659;28;20697;-58
2024/01/21 00:43:03;;;;;;;40.22;11.60;;;;;;;-2.65;72.27;101722.81;10270120;28;20051;-57
2024/01/21 00:48:05;;;;;;;45.25;11.82;;;;;;;-2.89;72.78;101720.16;10273077;28;20109;-58
2024/01/21 00:53:07;;;;;;;40.35;10.55;;;;;;;-2.99;72.92;101716.16;10276503;28;20086;-58
2024/01/21 00:58:08;;;;;;;36.40;11.02;;;;;;;-3.06;72.88;101719.91;10272756;28;20057;-58
2024/01/21 01:03:10;;;;;;;46.00;12.85;;;;;;;-3.10;72.81;101723.56;10272594;28;20513;-57
2024/01/21 01:08:11;;;;;;;41.00;12.05;;;;;;;-3.18;72.60;101726.44;10274646;28;20090;-58
2024/01/21 01:13:13;;;;;;;46.00;11.90;;;;;;;-3.18;72.69;101723.81;10274307;28;20049;-57
2024/01/21 01:18:14;;;;;;;40.55;12.25;;;;;;;-3.13;72.18;101708.75;10274857;28;20057;-58
2024/01/21 01:23:16;;;;;;;47.65;12.52;;;;;;;-3.15;71.92;101702.69;10273782;28;20127;-58
2024/01/21 01:28:17;;;;;;;43.38;12.20;;;;;;;-3.22;72.05;101703.81;10280289;28;20114;-58
2024/01/21 01:33:19;;;;;;;48.88;12.57;;;;;;;-3.29;71.80;101702.31;10280356;28;20142;-57
2024/01/21 01:38:20;;;;;;;65.45;12.43;;;;;;;-3.41;72.09;101700.97;10282183;28;20070;-59
2024/01/21 01:43:22;;;;;;;151.02;17.48;;;;;;;-3.47;71.77;101696.78;10279926;28;20046;-58
2024/01/21 01:48:24;;;;;;;65.57;12.60;;;;;;;-3.54;71.82;101689.16;10281135;28;20073;-57
2024/01/21 01:53:28;;;;;;;121.82;15.23;;;;;;;-3.60;71.93;101685.81;10280175;28;20050;-57
2024/01/21 01:58:33;;;;;;;56.13;11.13;;;;;;;-3.54;71.58;101676.88;10280754;28;20402;-58
2024/01/21 02:03:34;;;;;;;44.95;12.02;;;;;;;-3.58;71.49;101673.47;10280868;28;20153;-57
2024/01/21 02:08:36;;;;;;;53.90;12.38;;;;;;;-3.61;71.74;101683.25;10280205;28;20054;-59
2024/01/21 02:13:37;;;;;;;47.55;12.35;;;;;;;-3.67;71.99;101678.22;10281744;28;20039;-57
2024/01/21 02:18:42;;;;;;;52.47;13.30;;;;;;;-3.74;71.83;101655.69;10284238;28;20044;-57
2024/01/21 02:23:45;;;;;;;55.22;10.43;;;;;;;-3.95;71.86;101659.88;10279311;28;20046;-57
2024/01/21 02:28:46;;;;;;;49.22;11.95;;;;;;;-4.05;71.58;101647.06;10279271;28;20054;-58
2024/01/21 02:33:48;;;;;;;46.83;12.95;;;;;;;-4.17;71.44;101650.06;10276993;28;20042;-57
2024/01/21 02:38:49;;;;;;;44.03;11.88;;;;;;;-4.28;71.73;101642.53;10278497;28;20055;-57
2024/01/21 02:43:51;;;;;;;49.40;10.93;;;;;;;-4.30;71.56;101633.88;10278541;28;20047;-58
2024/01/21 02:48:52;;;;;;;47.15;11.07;;;;;;;-4.40;71.87;101622.78;10278746;28;20045;-57
2024/01/21 02:53:54;;;;;;;42.75;11.52;;;;;;;-4.48;71.65;101611.69;10278296;28;20047;-59
2024/01/21 02:58:56;;;;;;;34.15;11.25;;;;;;;-4.55;71.24;101622.41;10279996;28;20138;-57
2024/01/21 03:03:57;;;;;;;34.83;9.05;;;;;;;-4.67;71.59;101624.50;10277253;28;20138;-58
2024/01/21 03:08:59;;;;;;;24.75;8.50;;;;;;;-4.75;71.46;101616.03;10277662;28;20145;-58
2024/01/21 03:14:00;;;;;;;26.67;7.80;;;;;;;-4.82;71.36;101609.22;10278061;28;20046;-57
2024/01/21 03:19:02;;;;;;;27.55;8.10;;;;;;;-4.83;71.40;101610.16;10279042;28;20057;-57
2024/01/21 03:24:04;;;;;;;29.05;8.07;;;;;;;-4.88;71.32;101612.03;10279907;28;20134;-58
2024/01/21 03:29:05;;;;;;;31.05;8.93;;;;;;;-4.87;71.29;101595.41;10279686;28;20054;-58
2024/01/21 03:34:06;;;;;;;35.00;9.23;;;;;;;-4.89;71.55;101584.13;10277468;28;20055;-59
2024/01/21 03:39:08;;;;;;;26.00;8.27;;;;;;;-4.91;71.39;101581.53;10276885;28;20453;-58
2024/01/21 03:44:09;;;;;;;33.45;8.70;;;;;;;-4.88;71.24;101591.06;10274655;28;20070;-58
2024/01/21 03:49:11;;;;;;;39.55;11.07;;;;;;;-4.90;71.87;101578.00;10276121;28;20105;-58
2024/01/21 03:54:12;;;;;;;43.80;11.23;;;;;;;-4.86;71.39;101581.38;10276269;28;20050;-61
2024/01/21 03:59:14;;;;;;;36.00;11.52;;;;;;;-4.85;71.19;101580.50;10277066;28;20075;-58
2024/01/21 04:04:15;;;;;;;36.03;10.38;;;;;;;-4.82;71.26;101570.78;10276249;28;20126;-56
2024/01/21 04:09:23;;;;;;;27.55;7.95;;;;;;;-4.85;71.33;101573.47;10276979;28;20074;-57
2024/01/21 04:14:24;;;;;;;29.90;9.30;;;;;;;-4.99;71.52;101579.13;10275559;28;20043;-57
2024/01/21 04:19:25;;;;;;;26.85;7.93;;;;;;;-5.03;71.35;101574.91;10276405;28;20414;-57
2024/01/21 04:24:27;;;;;;;27.27;8.48;;;;;;;-5.02;70.97;101573.13;10275545;28;20218;-57
2024/01/21 04:29:29;;;;;;;23.70;7.85;;;;;;;-5.02;70.98;101578.38;10276330;28;20054;-57
2024/01/21 04:34:30;;;;;;;29.55;10.15;;;;;;;-5.08;71.40;101566.31;10274146;28;20150;-57
2024/01/21 04:39:32;;;;;;;28.88;7.82;;;;;;;-5.05;71.14;101568.84;10274287;28;20129;-57
2024/01/21 04:44:33;;;;;;;32.03;10.07;;;;;;;-5.03;71.18;101571.44;10273744;28;20039;-56
2024/01/21 04:49:35;;;;;;;27.20;8.65;;;;;;;-5.02;71.35;101560.03;10275143;28;20050;-57
2024/01/21 04:54:36;;;;;;;26.98;8.25;;;;;;;-5.07;70.77;101557.53;10274538;28;20150;-57
2024/01/21 04:59:38;;;;;;;21.65;7.05;;;;;;;-5.15;71.18;101569.16;10276416;28;20047;-58
2024/01/21 05:04:40;;;;;;;24.17;7.05;;;;;;;-5.14;71.41;101568.25;10275706;28;20051;-57
2024/01/21 05:09:41;;;;;;;21.75;8.15;;;;;;;-5.21;71.05;101578.06;10274367;28;20054;-58
2024/01/21 05:14:43;;;;;;;29.70;7.35;;;;;;;-5.34;71.45;101574.09;10275523;28;20081;-56
2024/01/21 05:19:45;;;;;;;29.10;7.00;;;;;;;-5.29;71.31;101580.91;10273533;28;20117;-58
2024/01/21 05:24:46;;;;;;;26.63;8.73;;;;;;;-5.26;71.06;101579.97;10273374;28;20051;-56
2024/01/21 05:29:48;;;;;;;30.90;8.50;;;;;;;-5.31;71.50;101577.47;10273827;28;20070;-57
2024/01/21 05:34:49;;;;;;;32.03;10.25;;;;;;;-5.34;71.21;101576.69;10272529;28;20043;-57
2024/01/21 05:39:51;;;;;;;24.10;7.57;;;;;;;-5.32;71.31;101554.78;10272524;28;20066;-57
2024/01/21 05:44:52;;;;;;;28.95;8.95;;;;;;;-5.30;71.40;101546.88;10274206;28;20051;-57
2024/01/21 05:49:53;;;;;;;39.45;11.05;;;;;;;-5.22;71.42;101555.38;10273382;28;20149;-56
2024/01/21 05:54:55;;;;;;;34.97;11.30;;;;;;;-5.10;71.51;101555.00;10273016;28;20559;-57
2024/01/21 05:59:58;;;;;;;33.28;9.77;;;;;;;-4.96;71.56;101558.97;10274702;28;20137;-57
2024/01/21 06:04:59;;;;;;;29.63;10.25;;;;;;;-4.91;71.37;101552.69;10273154;28;20054;-57
2024/01/21 06:10:01;;;;;;;40.33;10.57;;;;;;;-4.84;71.64;101561.22;10256431;28;20406;-57
2024/01/21 06:15:04;;;;;;;29.63;10.23;;;;;;;-4.62;71.04;101562.28;10278727;28;20074;-57
2024/01/21 06:20:07;;;;;;;33.95;10.52;;;;;;;-4.56;71.55;101555.97;10280559;28;20191;-57
2024/01/21 06:25:09;;;;;;;26.30;10.30;;;;;;;-4.45;71.25;101538.09;10279552;28;20134;-58
2024/01/21 06:30:21;;;;;;;30.60;10.75;;;;;;;-4.35;71.34;101558.81;10279275;28;20058;-57
2024/01/21 06:35:23;;;;;;;31.83;11.00;;;;;;;-4.34;71.55;101550.00;10278300;28;20054;-58
2024/01/21 06:40:24;;;;;;;36.55;12.20;;;;;;;-4.35;71.70;101536.03;10279078;28;20059;-58
2024/01/21 06:45:26;;;;;;;44.17;12.10;;;;;;;-4.26;71.33;101534.88;10278673;28;20125;-58
2024/01/21 06:50:27;;;;;;;41.88;12.05;;;;;;;-4.22;71.15;101547.84;10280788;28;20054;-59
2024/01/21 06:55:29;;;;;;;44.42;12.40;;;;;;;-4.09;71.37;101550.06;10280274;28;20058;-58
2024/01/21 07:00:30;;;;;;;46.92;12.25;;;;;;;-4.02;71.11;101552.41;10260344;28;20042;-58
2024/01/21 07:05:32;;;;;;;53.25;13.57;;;;;;;-4.03;71.24;101536.72;10281263;28;20129;-58
2024/01/21 07:10:33;;;;;;;55.78;12.90;;;;;;;-4.01;71.40;101537.50;10277910;28;20053;-56
2024/01/21 07:15:35;;;;;;;51.67;14.25;;;;;;;-3.73;70.95;101549.66;10279551;28;20061;-62
2024/01/21 07:20:36;;;;;;;50.53;12.02;;;;;;;-3.63;70.98;101553.72;10279965;28;20587;-63
2024/01/21 07:25:38;;;;;;;43.05;11.73;;;;;;;-3.54;71.11;101548.09;10277160;28;20142;-63
2024/01/21 07:30:39;;;;;;;47.60;12.02;;;;;;;-3.54;71.51;101550.72;10276833;28;20502;-63
2024/01/21 07:35:41;;;;;;;55.25;14.68;;;;;;;-3.29;71.01;101540.19;10277421;28;20157;-63
2024/01/21 07:40:42;;;;;;;52.40;15.32;;;;;;;-3.36;71.46;101532.56;10279073;28;20061;-61
2024/01/21 07:45:44;;;;;;;41.05;13.93;;;;;;;-3.34;72.15;101552.63;10261279;28;20202;-61
2024/01/21 07:50:47;;;;;;;57.50;15.32;;;;;;;-3.12;71.39;101546.56;10278299;28;20070;-61
2024/01/21 07:55:48;;;;;;;60.90;14.63;;;;;;;-3.01;71.73;101547.84;10259498;28;20047;-61
2024/01/21 08:00:49;;;;;;;71.50;15.98;;;;;;;-2.83;71.09;101527.03;10277417;28;20086;-61
2024/01/21 08:05:53;;;;;;;69.05;15.52;;;;;;;-2.70;71.29;101528.25;10277785;28;20053;-61
2024/01/21 08:10:54;;;;;;;54.33;14.13;;;;;;;-2.61;71.34;101546.31;10277240;28;20070;-62
2024/01/21 08:15:56;;;;;;;58.13;14.18;;;;;;;-2.58;71.36;101558.47;10277535;28;20402;-61
2024/01/21 08:20:57;;;;;;;49.05;13.43;;;;;;;-2.45;71.46;101561.47;10278766;28;20050;-61
2024/01/21 08:25:59;;;;;;;56.90;16.10;;;;;;;-2.37;71.65;101550.63;10274305;28;20062;-61
2024/01/21 08:31:03;;;;;;;65.15;17.05;;;;;;;-2.29;71.49;101562.56;10276745;28;20595;-62
2024/01/21 08:36:05;;;;;;;56.13;15.07;;;;;;;-2.16;71.65;101559.41;10276855;28;20054;-62
2024/01/21 08:41:07;;;;;;;59.45;14.88;;;;;;;-2.12;71.35;101563.63;10274859;28;20046;-63
2024/01/21 08:46:10;;;;;;;49.97;14.18;;;;;;;-1.97;71.13;101563.00;10276930;28;20425;-63
2024/01/21 08:51:12;;;;;;;52.35;14.93;;;;;;;-1.88;71.37;101548.56;10271854;28;20061;-63
2024/01/21 08:56:14;;;;;;;42.30;13.90;;;;;;;-1.73;71.20;101565.50;10274048;28;20052;-63
2024/01/21 09:01:16;;;;;;;59.65;14.80;;;;;;;-1.84;71.48;101561.56;10274608;28;20069;-63
2024/01/21 09:06:18;;;;;;;59.22;16.63;;;;;;;-1.71;70.98;101561.84;10271408;28;20058;-64
2024/01/21 09:11:21;;;;;;;49.00;13.98;;;;;;;-1.75;71.81;101573.47;10272552;28;20062;-64
2024/01/21 09:16:23;;;;;;;50.22;14.60;;;;;;;-1.87;71.86;101590.66;10273818;28;20066;-63
2024/01/21 09:21:24;;;;;;;52.10;14.85;;;;;;;-1.81;71.47;101561.41;10272821;28;20082;-63
2024/01/21 09:26:34;;;;;;;56.03;14.45;;;;;;;-1.74;71.44;101550.59;10276581;28;20054;-63
2024/01/21 09:31:35;;;;;;;55.63;15.00;;;;;;;-1.86;71.59;101547.56;10273308;28;20083;-63
2024/01/21 09:36:38;;;;;;;52.45;16.42;;;;;;;-1.83;71.33;101567.66;10278391;28;20055;-63
2024/01/21 09:41:49;;;;;;;53.95;13.57;;;;;;;-1.89;71.62;101554.75;10275519;28;20055;-64
2024/01/21 09:46:56;;;;;;;52.88;15.68;;;;;;;-1.89;71.48;101597.78;10276149;28;20154;-61
2024/01/21 09:51:59;;;;;;;47.50;15.32;;;;;;;-2.11;71.69;101637.31;10280409;28;20162;-62
2024/01/21 09:57:01;;;;;;;62.72;18.98;;;;;;;-2.18;71.79;101627.09;10266730;28;20051;-63
2024/01/21 10:02:03;;;;;;;50.42;14.98;;;;;;;-2.14;71.90;101655.03;10284003;28;20070;-63
2024/01/21 10:07:04;;;;;;;49.95;15.82;;;;;;;-2.23;71.88;101661.53;10279130;28;20054;-68
2024/01/21 10:12:07;;;;;;;51.67;15.77;;;;;;;-2.02;71.35;101655.38;10279372;28;20134;-68
2024/01/21 10:17:08;;;;;;;58.28;14.68;;;;;;;-1.95;71.66;101637.56;10282041;28;20078;-67
2024/01/21 10:22:11;;;;;;;52.00;17.38;;;;;;;-1.89;71.28;101636.44;10279336;28;20765;-69
2024/01/21 10:27:13;;;;;;;45.72;14.02;;;;;;;-1.88;71.00;101622.34;10280646;28;20425;-67
2024/01/21 10:32:17;;;;;;;57.40;18.67;;;;;;;-1.77;71.05;101627.16;10279534;28;20055;-68
2024/01/21 10:37:19;;;;;;;50.53;15.82;;;;;;;-1.65;70.87;101624.00;10276761;28;20536;-68
2024/01/21 10:42:21;;;;;;;49.00;15.52;;;;;;;-1.53;71.41;101596.25;10278389;28;20047;-68
2024/01/21 10:47:24;;;;;;;47.50;13.60;;;;;;;-1.60;71.33;101570.16;10278586;28;20047;-67
2024/01/21 10:52:26;;;;;;;54.58;15.52;;;;;;;-1.51;71.23;101550.44;10276929;28;20063;-68
2024/01/21 10:57:27;;;;;;;48.00;15.93;;;;;;;-1.45;70.95;101544.88;10273908;28;20053;-68
2024/01/21 11:02:30;;;;;;;47.03;14.75;;;;;;;-1.41;70.81;101530.63;10279569;28;20145;-70
2024/01/21 11:07:32;;;;;;;55.00;13.52;;;;;;;-1.34;71.06;101546.16;10278139;28;20145;-69
2024/01/21 11:12:34;;;;;;;51.20;16.38;;;;;;;-1.31;71.22;101519.66;10277987;28;20047;-70
2024/01/21 11:17:35;;;;;;;59.30;17.40;;;;;;;-1.35;71.41;101531.28;10280232;28;20166;-69
2024/01/21 11:22:37;;;;;;;60.17;15.55;;;;;;;-1.15;70.62;101548.81;10274286;28;20066;-70
2024/01/21 11:27:39;;;;;;;53.83;15.95;;;;;;;-1.00;70.47;101546.34;10274552;28;20597;-67
2024/01/21 11:32:41;;;;;;;53.33;16.00;;;;;;;-0.82;70.54;101522.63;10278138;28;20142;-69
2024/01/21 11:37:45;;;;;;;53.88;13.73;;;;;;;-0.69;70.47;101531.69;10277033;28;20085;-69
2024/01/21 11:42:50;;;;;;;51.30;16.73;;;;;;;-0.69;70.66;101525.53;10277652;28;20190;-69
2024/01/21 11:47:52;;;;;;;48.65;16.10;;;;;;;-0.37;70.11;101518.69;10259309;28;20113;-69
2024/01/21 11:52:53;;;;;;;51.30;15.45;;;;;;;-0.26;69.81;101516.38;10276673;28;20050;-69
2024/01/21 11:57:54;;;;;;;58.33;15.90;;;;;;;-0.29;70.27;101508.59;10278292;28;21595;-70
2024/01/21 12:02:56;;;;;;;57.13;17.23;;;;;;;-0.30;70.36;101514.78;10274367;28;20051;-69
2024/01/21 12:07:59;;;;;;;57.78;16.42;;;;;;;-0.16;70.52;101511.44;10277057;28;20054;-71
2024/01/21 12:13:00;;;;;;;54.72;16.83;;;;;;;0.24;69.64;101519.09;10275285;28;20062;-69
2024/01/21 12:18:02;;;;;;;63.10;19.17;;;;;;;0.31;70.05;101502.84;10281666;28;20054;-67
2024/01/21 12:23:17;;;;;;;66.88;18.75;;;;;;;0.46;69.40;101495.88;10274207;28;20043;-67
2024/01/21 12:28:19;;;;;;;51.22;18.75;;;;;;;0.35;69.65;101500.88;10256275;28;20043;-69
2024/01/21 12:33:20;;;;;;;56.40;17.30;;;;;;;0.43;69.36;101487.25;10280265;28;20047;-68
2024/01/21 12:38:23;;;;;;;53.00;17.33;;;;;;;0.41;70.03;101476.75;10278922;28;20064;-66
2024/01/21 12:43:24;;;;;;;48.47;15.77;;;;;;;0.45;70.10;101453.63;10277921;28;20059;-66
2024/01/21 12:48:26;;;;;;;59.88;16.70;;;;;;;0.56;69.81;101483.88;10280163;28;20077;-69
2024/01/21 12:53:28;;;;;;;58.50;19.58;;;;;;;0.59;69.26;101493.41;10287256;28;20510;-68
2024/01/21 12:58:29;;;;;;;56.33;17.75;;;;;;;0.68;69.44;101470.91;10294145;28;20055;-66
2024/01/21 13:03:32;;;;;;;53.90;15.93;;;;;;;0.84;69.18;101455.88;10289309;28;20096;-69
2024/01/21 13:08:35;;;;;;;57.03;17.75;;;;;;;0.99;69.35;101457.66;10273626;28;20047;-69
2024/01/21 13:13:37;;;;;;;64.10;18.98;;;;;;;1.06;69.00;101459.97;10297720;28;20616;-68
2024/01/21 13:18:41;;;;;;;66.63;19.25;;;;;;;1.11;69.24;101437.59;10284333;28;20043;-69
2024/01/21 13:23:43;;;;;;;63.97;18.73;;;;;;;1.36;69.38;101442.31;10253726;28;20050;-68
2024/01/21 13:34:04;;;;;;;60.63;20.17;;;;;;;1.26;69.63;101453.53;10282807;28;20051;-69
2024/01/21 13:39:08;;;;;;;59.70;18.50;;;;;;;1.29;69.72;101416.28;10283388;28;20086;-70
2024/01/21 13:44:09;;;;;;;57.40;17.63;;;;;;;1.35;69.09;101406.16;10282183;28;20051;-69
2024/01/21 13:49:11;;;;;;;61.53;16.77;;;;;;;1.40;68.90;101405.88;10283181;28;20054;-71
2024/01/21 13:54:12;;;;;;;71.60;19.38;;;;;;;1.56;68.31;101400.53;10282765;28;20062;-71
2024/01/21 13:59:14;;;;;;;55.40;17.63;;;;;;;1.57;69.20;101402.25;10281854;28;20043;-70
2024/01/21 14:04:15;;;;;;;56.30;16.30;;;;;;;1.52;69.02;101409.59;10274526;28;20069;-69
2024/01/21 14:09:17;;;;;;;48.45;15.98;;;;;;;1.56;68.94;101397.88;10282865;28;20585;-70
2024/01/21 14:14:19;;;;;;;48.88;18.35;;;;;;;1.47;69.24;101403.75;10282579;28;20576;-70
2024/01/21 14:19:20;;;;;;;57.92;17.98;;;;;;;1.54;68.59;101423.63;10281175;28;20046;-68
2024/01/21 14:24:25;;;;;;;60.85;18.27;;;;;;;1.54;69.21;101435.09;10279400;28;20042;-66
2024/01/21 14:29:31;;;;;;;59.42;18.75;;;;;;;1.47;69.41;101428.44;10281615;28;20406;-66
2024/01/21 14:34:33;;;;;;;61.50;19.50;;;;;;;1.51;68.67;101422.00;10281959;28;20054;-71
2024/01/21 14:39:35;;;;;;;52.58;17.38;;;;;;;1.51;69.37;101422.00;10280692;28;20117;-69
2024/01/21 14:44:37;;;;;;;54.97;17.60;;;;;;;1.51;69.25;101429.13;10275807;28;20050;-69
2024/01/21 14:49:38;;;;;;;55.20;18.92;;;;;;;1.63;68.70;101438.13;10281764;28;20133;-69
2024/01/21 14:54:40;;;;;;;52.65;20.13;;;;;;;1.47;68.84;101449.63;10281429;28;20053;-70
2024/01/21 14:59:41;;;;;;;62.60;18.90;;;;;;;1.59;69.50;101445.41;10279382;28;20757;-69
2024/01/21 15:04:43;;;;;;;54.47;17.67;;;;;;;1.72;68.94;101446.38;10274535;28;20051;-70
2024/01/21 15:09:48;;;;;;;49.92;18.52;;;;;;;1.72;69.26;101450.84;10278687;28;20110;-69
2024/01/21 15:14:59;;;;;;;49.53;17.08;;;;;;;1.77;68.50;101452.25;10277305;28;20050;-71
2024/01/21 15:20:00;;;;;;;48.42;18.35;;;;;;;1.77;68.40;101454.06;10278404;28;20141;-70
2024/01/21 15:25:02;;;;;;;49.85;18.50;;;;;;;1.92;68.82;101436.38;10278553;28;20421;-70
2024/01/21 15:30:04;;;;;;;56.40;18.38;;;;;;;1.87;68.85;101439.28;10263294;28;20481;-71
2024/01/21 15:35:06;;;;;;;52.90;19.42;;;;;;;1.87;69.01;101433.16;10274822;28;20054;-70
2024/01/21 15:40:08;;;;;;;49.15;18.85;;;;;;;1.75;68.56;101418.84;10276029;28;20066;-70
2024/01/21 15:45:11;;;;;;;56.97;19.48;;;;;;;1.73;68.84;101418.94;10276112;28;20050;-70
2024/01/21 15:50:12;;;;;;;52.53;19.35;;;;;;;1.86;69.05;101416.41;10285791;28;20051;-69
2024/01/21 15:55:14;;;;;;;49.88;18.20;;;;;;;1.91;68.72;101427.56;10278718;28;20113;-68
2024/01/21 16:00:16;;;;;;;58.08;20.55;;;;;;;2.00;68.37;101430.63;10283697;28;20050;-70
2024/01/21 16:05:17;;;;;;;50.90;19.23;;;;;;;2.13;68.57;101432.44;10280032;28;20043;-69
2024/01/21 16:10:19;;;;;;;50.80;20.33;;;;;;;2.27;68.27;101433.34;10282779;28;20050;-70
2024/01/21 16:15:21;;;;;;;51.50;19.50;;;;;;;2.30;68.54;101446.44;10279671;28;20415;-61
2024/01/21 16:20:23;;;;;;;55.72;20.20;;;;;;;2.34;67.97;101454.09;10275768;28;20133;-62
2024/01/21 16:25:27;;;;;;;52.53;17.90;;;;;;;2.35;68.66;101441.69;10277699;28;20047;-62
2024/01/21 16:30:28;;;;;;;46.35;18.90;;;;;;;2.39;68.35;101440.56;10279050;28;20473;-61
2024/01/21 16:35:30;;;;;;;43.08;17.77;;;;;;;2.47;68.47;101442.72;10276972;28;20442;-61
2024/01/21 16:40:32;;;;;;;54.65;20.30;;;;;;;2.51;68.05;101439.78;10279355;28;20053;-61
2024/01/21 16:45:33;;;;;;;52.97;19.58;;;;;;;2.51;68.48;101428.31;10258845;28;20565;-61
2024/01/21 16:50:35;;;;;;;55.47;21.98;;;;;;;2.46;68.35;101423.28;10274251;28;20066;-61
2024/01/21 16:55:36;;;;;;;48.15;20.13;;;;;;;2.47;68.42;101421.47;10272087;28;20438;-60
2024/01/21 17:00:44;;;;;;;43.72;16.80;;;;;;;2.50;68.60;101418.66;10254719;28;20073;-61
2024/01/21 17:05:46;;;;;;;56.35;20.65;;;;;;;2.55;68.64;101417.41;10274484;28;20050;-64
2024/01/21 17:10:56;;;;;;;60.58;22.40;;;;;;;2.57;68.46;101404.03;10271400;28;20589;-66
2024/01/21 17:15:57;;;;;;;46.25;18.92;;;;;;;2.56;68.59;101404.97;10273642;28;20051;-65
2024/01/21 17:20:59;;;;;;;46.55;20.85;;;;;;;2.62;68.68;101390.47;10273622;28;20105;-63
2024/01/21 17:26:00;;;;;;;54.25;20.27;;;;;;;2.67;68.52;101389.22;10272531;28;20058;-71
2024/01/21 17:31:03;;;;;;;50.35;20.50;;;;;;;2.54;68.82;101383.84;10273833;28;20058;-68
2024/01/21 17:36:04;;;;;;;48.53;20.00;;;;;;;2.53;69.44;101374.19;10277845;28;20137;-70
2024/01/21 17:41:06;;;;;;;46.97;19.80;;;;;;;2.57;69.34;101377.50;10273387;28;20591;-67
2024/01/21 17:46:12;;;;;;;50.97;20.33;;;;;;;2.57;69.42;101377.50;10277148;28;20043;-70
2024/01/21 17:51:14;;;;;;;41.60;17.77;;;;;;;2.60;69.55;101373.78;10274766;28;20110;-61
2024/01/21 17:56:16;;;;;;;42.70;17.45;;;;;;;2.67;69.96;101370.66;10270778;28;20051;-60
2024/01/21 18:01:18;;;;;;;44.50;18.77;;;;;;;2.69;70.01;101352.81;10271886;28;20241;-62
2024/01/21 18:06:19;;;;;;;39.88;18.50;;;;;;;2.82;69.98;101338.72;10274092;28;20043;-61
2024/01/21 18:11:21;;;;;;;42.28;18.15;;;;;;;2.88;69.74;101371.03;10282995;28;20051;-60
2024/01/21 18:16:22;;;;;;;36.60;15.95;;;;;;;2.89;70.00;101359.47;10282978;28;20055;-63
2024/01/21 18:21:24;;;;;;;38.47;17.05;;;;;;;2.88;70.28;101359.56;10280627;28;20058;-62
2024/01/21 18:26:26;;;;;;;40.55;19.10;;;;;;;2.98;70.40;101350.03;10280540;28;20528;-62
2024/01/21 18:31:27;;;;;;;34.10;15.73;;;;;;;2.99;70.38;101335.81;10279780;28;20054;-62
2024/01/21 18:36:28;;;;;;;39.30;17.17;;;;;;;3.02;70.54;101335.63;10282415;28;20061;-62
2024/01/21 18:41:30;;;;;;;36.70;16.33;;;;;;;3.11;70.79;101332.31;10280890;28;20054;-59
2024/01/21 18:46:32;;;;;;;35.70;16.58;;;;;;;3.12;70.86;101334.03;10258889;28;20054;-61
2024/01/21 18:51:33;;;;;;;46.38;20.55;;;;;;;3.16;71.06;101324.91;10277660;28;20055;-61
2024/01/21 18:56:35;;;;;;;37.95;16.50;;;;;;;3.22;71.07;101315.66;10279198;28;21453;-63
2024/01/21 19:01:36;;;;;;;32.28;13.13;;;;;;;3.23;71.04;101317.34;10276507;28;20425;-62
2024/01/21 19:06:37;;;;;;;35.35;17.05;;;;;;;3.24;71.36;101324.38;10260639;28;20043;-61
2024/01/21 19:11:40;;;;;;;30.27;15.23;;;;;;;3.32;71.18;101327.38;10278283;28;20437;-62
2024/01/21 19:16:41;;;;;;;29.70;13.77;;;;;;;3.46;70.59;101323.75;10276683;28;20051;-60
2024/01/21 19:21:42;;;;;;;33.50;13.77;;;;;;;3.57;70.89;101325.66;10277255;28;20057;-60
2024/01/21 19:26:44;;;;;;;31.63;14.43;;;;;;;3.64;70.87;101323.44;10278994;28;20521;-60
2024/01/21 19:31:45;;;;;;;36.92;15.20;;;;;;;3.74;70.69;101333.31;10274921;28;20053;-62
2024/01/21 19:36:47;;;;;;;29.73;14.07;;;;;;;3.87;70.29;101316.50;10276660;28;20054;-60
2024/01/21 19:41:48;;;;;;;33.20;15.60;;;;;;;3.87;70.62;101306.72;10274769;28;20052;-61
2024/01/21 19:46:50;;;;;;;36.83;14.85;;;;;;;3.89;70.83;101322.56;10279025;28;20057;-63
2024/01/21 19:51:51;;;;;;;31.48;13.98;;;;;;;3.84;70.63;101306.09;10280523;28;20126;-61
2024/01/21 19:56:53;;;;;;;33.00;14.20;;;;;;;3.88;70.93;101300.44;10278745;28;20043;-61
2024/01/21 20:01:54;;;;;;;31.80;14.55;;;;;;;3.92;71.03;101287.78;10277270;28;20069;-60
2024/01/21 20:06:55;;;;;;;36.63;15.38;;;;;;;3.95;71.14;101274.25;10277092;28;20057;-61
2024/01/21 20:11:57;;;;;;;29.30;15.27;;;;;;;4.00;70.64;101265.94;10277815;28;20094;-61
2024/01/21 20:16:58;;;;;;;30.48;14.15;;;;;;;3.92;70.77;101254.03;10279448;28;20062;-62
2024/01/21 20:22:00;;;;;;;32.53;14.65;;;;;;;3.99;70.96;101238.50;10274357;28;20057;-60
2024/01/21 20:27:01;;;;;;;35.85;15.90;;;;;;;4.04;71.20;101233.69;10278192;28;20054;-62
2024/01/21 20:32:03;;;;;;;28.30;14.48;;;;;;;4.15;71.02;101215.13;10275223;28;20055;-62
2024/01/21 20:37:04;;;;;;;37.47;16.63;;;;;;;4.15;70.26;101224.94;10273621;28;20047;-64
2024/01/21 20:42:11;;;;;;;34.72;16.15;;;;;;;4.21;70.25;101210.31;10272946;28;20046;-64
2024/01/21 20:47:15;;;;;;;37.87;16.33;;;;;;;4.23;70.70;101197.75;10275039;28;20054;-63
2024/01/21 20:52:16;;;;;;;33.50;14.93;;;;;;;4.26;70.53;101163.75;10274647;28;20399;-63
2024/01/21 20:57:18;;;;;;;35.03;15.02;;;;;;;4.28;69.94;101164.50;10273333;28;20706;-64
2024/01/21 21:02:19;;;;;;;32.42;15.60;;;;;;;4.27;70.27;101157.47;10275832;28;20534;-63
2024/01/21 21:07:21;;;;;;;36.33;17.08;;;;;;;4.29;70.14;101136.94;10274207;28;20051;-62
2024/01/21 21:12:22;;;;;;;33.80;16.05;;;;;;;4.32;69.96;101131.34;10278782;28;20038;-64
2024/01/21 21:17:23;;;;;;;44.38;17.67;;;;;;;4.34;70.50;101124.13;10270191;28;20050;-63
2024/01/21 21:22:28;;;;;;;28.20;14.48;;;;;;;4.30;70.38;101097.84;10273395;28;20128;-62
2024/01/21 21:27:29;;;;;;;31.15;16.55;;;;;;;4.26;70.10;101097.22;10275776;28;20051;-63
2024/01/21 21:32:31;;;;;;;34.50;14.60;;;;;;;4.23;70.89;101092.16;10274805;28;20050;-62
2024/01/21 21:37:33;;;;;;;35.80;14.85;;;;;;;4.26;70.38;101081.25;10277602;28;20082;-62
2024/01/21 21:42:34;;;;;;;28.67;13.77;;;;;;;4.29;70.95;101072.22;10276248;28;20059;-62
2024/01/21 21:47:36;;;;;;;26.75;14.70;;;;;;;4.28;71.08;101063.38;10273901;28;20055;-63
2024/01/21 21:52:37;;;;;;;33.80;14.60;;;;;;;4.32;71.03;101045.34;10274783;28;20059;-62
2024/01/21 21:57:39;;;;;;;30.40;13.18;;;;;;;4.40;70.24;101037.63;10277789;28;20047;-62
2024/01/21 22:02:41;;;;;;;33.35;13.30;;;;;;;4.43;70.13;101036.56;10278442;28;20083;-62
2024/01/21 22:07:46;;;;;;;32.65;12.90;;;;;;;4.45;70.75;101037.28;10280559;28;20061;-63
2024/01/21 22:12:48;;;;;;;28.67;13.68;;;;;;;4.47;70.73;101019.38;10279459;28;20561;-62
2024/01/21 22:17:49;;;;;;;21.52;10.90;;;;;;;4.40;71.14;101004.84;10279893;28;20046;-63
2024/01/21 22:22:51;;;;;;;20.98;10.80;;;;;;;4.34;71.05;100969.75;10278920;28;20047;-63
2024/01/21 22:27:52;;;;;;;18.45;9.82;;;;;;;4.30;71.32;100962.97;10280530;28;20135;-63
2024/01/21 22:32:55;;;;;;;14.90;8.23;;;;;;;4.27;71.92;100951.75;10278973;28;20053;-63
2024/01/21 22:37:56;;;;;;;13.90;7.57;;;;;;;4.32;71.90;100977.00;10279755;28;20050;-63
2024/01/21 22:42:58;;;;;;;15.60;7.65;;;;;;;4.31;72.57;100966.50;10282435;28;20062;-63
2024/01/21 22:47:59;;;;;;;14.73;7.78;;;;;;;4.40;72.65;100968.41;10278342;28;20061;-62
2024/01/21 22:53:01;;;;;;;17.85;8.23;;;;;;;4.44;72.04;100972.53;10278645;28;20086;-62